createdAt,value
2019-05-10T00:03:48.192Z,8.80
2019-05-10T00:08:17.504Z,8.80
2019-05-10T00:12:42.418Z,8.80
2019-05-10T00:16:56.661Z,8.80
2019-05-10T00:21:08.520Z,8.80
2019-05-10T00:25:20.325Z,8.80
2019-05-10T00:29:32.137Z,8.80
2019-05-10T00:33:43.925Z,8.70
2019-05-10T00:37:55.844Z,8.70
2019-05-10T00:42:07.734Z,8.80
2019-05-10T00:46:19.683Z,8.60
2019-05-10T00:50:31.279Z,8.60
2019-05-10T00:54:43.121Z,8.50
2019-05-10T00:58:54.937Z,8.50
2019-05-10T01:03:06.750Z,8.40
2019-05-10T01:07:19.783Z,8.30
2019-05-10T01:11:31.678Z,8.30
2019-05-10T01:15:46.578Z,8.40
2019-05-10T01:19:58.243Z,8.30
2019-05-10T01:24:10.041Z,8.40
2019-05-10T01:28:21.843Z,8.40
2019-05-10T01:32:33.640Z,8.50
2019-05-10T01:36:45.331Z,8.50
2019-05-10T01:40:57.084Z,8.40
2019-05-10T01:45:09.135Z,8.50
2019-05-10T01:49:21.006Z,8.50
2019-05-10T01:53:32.771Z,8.50
2019-05-10T01:57:45.407Z,8.60
2019-05-10T02:01:57.171Z,8.60
2019-05-10T02:06:08.977Z,8.60
2019-05-10T02:10:20.782Z,8.70
2019-05-10T02:14:32.596Z,8.70
2019-05-10T02:18:44.551Z,8.80
2019-05-10T02:22:56.200Z,8.80
2019-05-10T02:27:07.882Z,8.90
2019-05-10T02:31:21.602Z,8.90
2019-05-10T02:35:33.130Z,9.00
2019-05-10T02:39:45.012Z,9.10
2019-05-10T02:43:56.902Z,9.10
2019-05-10T02:48:08.706Z,9.10
2019-05-10T02:52:20.534Z,9.10
2019-05-10T02:56:33.517Z,9.10
2019-05-10T03:00:47.408Z,9.10
2019-05-10T03:05:01.233Z,9.10
2019-05-10T03:09:13.281Z,9.20
2019-05-10T03:13:30.370Z,9.20
2019-05-10T03:17:43.002Z,9.30
2019-05-10T03:22:09.448Z,9.30
2019-05-10T03:26:21.180Z,9.30
2019-05-10T03:30:33.068Z,9.30
2019-05-10T03:34:44.975Z,9.40
2019-05-10T03:38:56.879Z,9.50
2019-05-10T03:43:09.353Z,9.50
2019-05-10T03:47:21.099Z,9.60
2019-05-10T03:51:33.046Z,9.60
2019-05-10T03:55:44.901Z,9.50
2019-05-10T03:59:56.693Z,9.50
2019-05-10T04:04:09.689Z,9.60
2019-05-10T04:08:21.739Z,9.60
2019-05-10T04:12:33.548Z,9.70
2019-05-10T04:16:45.321Z,9.70
2019-05-10T04:20:57.202Z,9.80
2019-05-10T04:25:09.253Z,9.70
2019-05-10T04:29:21.182Z,9.70
2019-05-10T04:33:33.053Z,9.60
2019-05-10T04:37:45.525Z,9.60
2019-05-10T04:41:57.419Z,9.70
2019-05-10T04:46:09.329Z,9.80
2019-05-10T04:50:21.168Z,9.80
2019-05-10T04:54:33.040Z,9.90
2019-05-10T04:58:44.696Z,9.90
2019-05-10T05:02:56.373Z,10.00
2019-05-10T05:07:08.173Z,10.00
2019-05-10T05:11:20.095Z,10.00
2019-05-10T05:15:31.890Z,10.00
2019-05-10T05:19:43.794Z,10.10
2019-05-10T05:23:55.476Z,10.10
2019-05-10T05:28:08.437Z,10.10
2019-05-10T05:32:20.528Z,10.20
2019-05-10T05:36:32.319Z,10.20
2019-05-10T05:40:44.220Z,10.30
2019-05-10T05:44:56.188Z,10.30
2019-05-10T05:49:08.056Z,10.30
2019-05-10T05:53:22.408Z,10.40
2019-05-10T05:57:33.009Z,10.40
2019-05-10T06:01:44.780Z,10.40
2019-05-10T06:05:56.572Z,10.50
2019-05-10T06:10:10.162Z,10.50
2019-05-10T06:14:22.020Z,10.50
2019-05-10T06:18:33.811Z,10.50
2019-05-10T06:23:04.910Z,10.50
2019-05-10T06:27:03.504Z,10.50
2019-05-10T06:31:13.021Z,10.50
2019-05-10T06:35:24.823Z,10.60
2019-05-10T06:39:36.485Z,10.60
2019-05-10T06:43:51.261Z,10.70
2019-05-10T06:48:01.861Z,10.80
2019-05-10T06:52:16.226Z,10.90
2019-05-10T06:56:28.025Z,10.90
2019-05-10T07:00:45.044Z,11.00
2019-05-10T07:04:56.394Z,11.00
2019-05-10T07:09:10.205Z,11.10
2019-05-10T07:13:22.728Z,11.20
2019-05-10T07:17:41.366Z,11.20
2019-05-10T07:21:51.150Z,11.30
2019-05-10T07:26:02.541Z,11.30
2019-05-10T07:30:16.605Z,11.40
2019-05-10T07:34:28.362Z,11.50
2019-05-10T07:38:40.153Z,11.70
2019-05-10T07:42:52.018Z,11.70
2019-05-10T07:47:03.916Z,11.80
2019-05-10T07:51:15.763Z,11.80
2019-05-10T07:55:29.886Z,11.90
2019-05-10T07:59:50.152Z,12.00
2019-05-10T08:03:55.846Z,12.10
2019-05-10T08:08:09.587Z,12.20
2019-05-10T08:12:22.297Z,12.20
2019-05-10T08:16:35.826Z,12.20
2019-05-10T08:20:53.914Z,12.10
2019-05-10T08:25:02.878Z,12.20
2019-05-10T08:29:16.931Z,12.10
2019-05-10T08:33:29.028Z,12.10
2019-05-10T08:37:43.358Z,12.30
2019-05-10T08:42:03.882Z,12.40
2019-05-10T08:46:08.801Z,12.60
2019-05-10T08:50:34.492Z,12.80
2019-05-10T08:54:33.985Z,12.90
2019-05-10T08:58:45.784Z,12.90
2019-05-10T09:03:01.016Z,12.90
2019-05-10T09:07:11.874Z,12.80
2019-05-10T09:11:23.829Z,12.70
2019-05-10T09:15:35.640Z,12.60
2019-05-10T09:19:47.462Z,12.70
2019-05-10T09:24:03.366Z,12.70
2019-05-10T09:28:16.661Z,12.70
2019-05-10T09:32:28.955Z,12.60
2019-05-10T09:36:42.940Z,12.50
2019-05-10T09:40:56.286Z,12.50
2019-05-10T09:45:09.683Z,12.40
2019-05-10T09:49:20.081Z,12.40
2019-05-10T09:53:31.892Z,12.50
2019-05-10T09:57:43.796Z,12.60
2019-05-10T10:01:57.156Z,12.70
2019-05-10T10:06:11.439Z,12.70
2019-05-10T10:10:30.115Z,12.80
2019-05-10T10:14:39.286Z,13.00
2019-05-10T10:18:50.321Z,13.00
2019-05-10T10:23:02.181Z,12.90
2019-05-10T10:27:13.990Z,12.90
2019-05-10T10:31:30.333Z,12.90
2019-05-10T10:35:39.205Z,13.00
2019-05-10T10:39:54.377Z,13.00
2019-05-10T10:44:04.412Z,13.20
2019-05-10T10:48:17.868Z,13.30
2019-05-10T10:52:29.905Z,13.30
2019-05-10T10:56:41.887Z,13.30
2019-05-10T11:00:53.729Z,13.20
2019-05-10T11:05:06.201Z,13.10
2019-05-10T11:09:17.810Z,13.10
2019-05-10T11:13:41.674Z,13.00
2019-05-10T11:17:43.073Z,12.90
2019-05-10T11:21:54.870Z,13.00
2019-05-10T11:26:06.875Z,13.00
2019-05-10T11:30:21.414Z,13.00
2019-05-10T11:34:37.467Z,13.10
2019-05-10T11:38:47.096Z,13.20
2019-05-10T11:43:01.466Z,13.20
2019-05-10T11:47:23.270Z,13.10
2019-05-10T11:51:26.583Z,13.20
2019-05-10T11:55:41.198Z,13.20
2019-05-10T11:59:54.900Z,13.30
2019-05-10T12:04:13.015Z,13.40
2019-05-10T12:08:22.316Z,13.50
2019-05-10T12:16:46.919Z,13.50
2019-05-10T12:21:08.949Z,13.70
2019-05-10T12:25:35.938Z,13.90
2019-05-10T12:26:05.230Z,13.40
2019-05-10T12:29:26.009Z,14.00
2019-05-10T12:33:37.822Z,14.20
2019-05-10T12:37:53.854Z,14.40
2019-05-10T12:42:02.980Z,14.50
2019-05-10T12:46:14.695Z,14.60
2019-05-10T12:50:26.713Z,14.60
2019-05-10T12:54:41.460Z,14.50
2019-05-10T12:58:57.751Z,14.50
2019-05-10T13:03:12.604Z,14.30
2019-05-10T13:07:19.684Z,14.20
2019-05-10T13:11:31.498Z,14.10
2019-05-10T13:15:43.357Z,14.20
2019-05-10T13:19:58.539Z,14.40
2019-05-10T13:24:08.840Z,14.40
2019-05-10T13:28:20.866Z,14.50
2019-05-10T13:32:32.905Z,14.70
2019-05-10T13:36:45.776Z,14.60
2019-05-10T13:40:57.617Z,14.50
2019-05-10T13:45:10.318Z,14.40
2019-05-10T13:49:22.127Z,14.30
2019-05-10T13:53:33.838Z,14.20
2019-05-10T13:57:46.676Z,14.30
2019-05-10T14:01:58.253Z,14.30
2019-05-10T14:06:10.038Z,14.40
2019-05-10T14:10:23.402Z,14.60
2019-05-10T14:14:36.093Z,14.80
2019-05-10T14:18:47.823Z,14.90
2019-05-10T14:22:59.592Z,14.90
2019-05-10T14:27:11.505Z,14.60
2019-05-10T14:31:23.296Z,14.50
2019-05-10T14:35:35.105Z,14.50
2019-05-10T14:39:47.012Z,14.70
2019-05-10T14:43:58.900Z,14.90
2019-05-10T14:48:10.685Z,15.00
2019-05-10T14:52:22.791Z,15.10
2019-05-10T14:56:34.869Z,15.20
2019-05-10T15:00:46.769Z,15.10
2019-05-10T15:05:01.235Z,14.90
2019-05-10T15:09:20.933Z,14.70
2019-05-10T15:13:28.257Z,14.70
2019-05-10T15:17:40.772Z,14.70
2019-05-10T15:21:52.817Z,14.80
2019-05-10T15:26:11.602Z,14.80
2019-05-10T15:30:18.565Z,14.80
2019-05-10T15:34:30.372Z,14.90
2019-05-10T15:38:49.984Z,14.80
2019-05-10T15:42:55.894Z,14.90
2019-05-10T15:47:14.514Z,14.80
2019-05-10T15:51:35.257Z,14.70
2019-05-10T15:55:34.893Z,14.70
2019-05-10T15:59:50.812Z,14.70
2019-05-10T16:04:00.226Z,14.90
2019-05-10T16:08:13.613Z,15.00
2019-05-10T16:12:25.145Z,15.30
2019-05-10T16:16:39.688Z,15.50
2019-05-10T16:20:50.758Z,15.60
2019-05-10T16:25:02.824Z,15.50
2019-05-10T16:29:15.024Z,15.50
2019-05-10T16:33:26.829Z,15.50
2019-05-10T16:37:38.512Z,15.40
2019-05-10T16:41:50.336Z,15.30
2019-05-10T16:46:02.497Z,15.20
2019-05-10T16:50:14.857Z,15.00
2019-05-10T16:54:27.360Z,14.80
2019-05-10T16:58:40.963Z,14.60
2019-05-10T17:02:52.832Z,14.50
2019-05-10T17:07:04.433Z,14.40
2019-05-10T17:11:18.152Z,14.30
2019-05-10T17:15:33.965Z,14.20
2019-05-10T17:19:45.916Z,14.20
2019-05-10T17:23:57.845Z,14.10
2019-05-10T17:28:09.672Z,14.10
2019-05-10T17:32:24.660Z,14.10
2019-05-10T17:36:35.035Z,14.00
2019-05-10T17:40:49.531Z,14.10
2019-05-10T17:45:01.674Z,14.00
2019-05-10T17:49:13.878Z,14.00
2019-05-10T17:53:25.693Z,14.00
2019-05-10T17:57:37.541Z,14.10
2019-05-10T18:01:53.525Z,14.20
2019-05-10T18:06:05.281Z,14.30
2019-05-10T18:10:17.628Z,14.30
2019-05-10T18:14:29.756Z,14.20
2019-05-10T18:18:46.711Z,14.10
2019-05-10T18:22:54.959Z,14.10
2019-05-10T18:27:06.824Z,14.00
2019-05-10T18:31:18.665Z,13.90
2019-05-10T18:35:30.464Z,13.80
2019-05-10T18:39:42.277Z,13.80
2019-05-10T18:43:53.968Z,13.70
2019-05-10T18:48:05.915Z,13.70
2019-05-10T18:52:17.753Z,13.70
2019-05-10T18:56:31.130Z,13.60
2019-05-10T19:00:43.055Z,13.60
2019-05-10T19:04:54.815Z,13.50
2019-05-10T19:09:07.812Z,13.40
2019-05-10T19:13:19.817Z,13.30
2019-05-10T19:17:31.910Z,13.20
2019-05-10T19:21:43.752Z,13.20
2019-05-10T19:25:55.559Z,13.10
2019-05-10T19:30:08.121Z,13.10
2019-05-10T19:34:19.894Z,13.10
2019-05-10T19:38:31.672Z,13.10
2019-05-10T19:42:44.835Z,13.10
2019-05-10T19:46:57.074Z,13.10
2019-05-10T19:51:09.996Z,13.10
2019-05-10T19:55:22.365Z,13.10
2019-05-10T19:59:34.194Z,13.10
2019-05-10T20:03:45.905Z,13.10
2019-05-10T20:07:57.664Z,13.10
2019-05-10T20:12:09.465Z,13.20
2019-05-10T20:16:21.270Z,13.20
2019-05-10T20:20:32.869Z,13.10
2019-05-10T20:24:44.628Z,13.10
2019-05-10T20:28:56.464Z,13.00
2019-05-10T20:33:08.540Z,13.00
2019-05-10T20:37:20.377Z,13.00
2019-05-10T20:41:32.180Z,12.90
2019-05-10T20:45:43.977Z,12.80
2019-05-10T20:49:55.830Z,12.90
2019-05-10T20:54:07.572Z,12.80
2019-05-10T20:58:20.507Z,12.70
2019-05-10T21:02:32.443Z,12.80
2019-05-10T21:06:44.270Z,12.70
2019-05-10T21:10:56.039Z,12.60
2019-05-10T21:15:08.232Z,12.60
2019-05-10T21:19:20.282Z,12.50
2019-05-10T21:23:32.267Z,12.50
2019-05-10T21:27:43.847Z,12.40
2019-05-10T21:31:55.624Z,12.40
2019-05-10T21:36:07.586Z,12.30
2019-05-10T21:40:19.140Z,12.30
2019-05-10T21:44:30.832Z,12.20
2019-05-10T21:48:42.710Z,12.10
2019-05-10T21:52:54.536Z,12.00
2019-05-10T21:57:06.246Z,12.00
2019-05-10T22:01:18.115Z,12.00
2019-05-10T22:05:30.106Z,12.00
2019-05-10T22:09:41.952Z,12.10
2019-05-10T22:13:53.558Z,12.00
2019-05-10T22:18:05.345Z,11.90
2019-05-10T22:22:17.154Z,11.90
2019-05-10T22:26:28.953Z,12.00
2019-05-10T22:30:40.744Z,12.00
2019-05-10T22:34:52.659Z,12.00
2019-05-10T22:39:07.865Z,12.00
2019-05-10T22:43:19.832Z,12.00
2019-05-10T22:47:31.809Z,11.90
2019-05-10T22:51:43.430Z,11.70
2019-05-10T22:55:55.119Z,11.70
2019-05-10T23:00:07.750Z,11.60
2019-05-10T23:04:19.448Z,11.50
2019-05-10T23:08:31.340Z,11.50
2019-05-10T23:12:43.156Z,11.40
2019-05-10T23:16:54.962Z,11.30
2019-05-10T23:21:06.786Z,11.30
2019-05-10T23:25:18.694Z,11.40
2019-05-10T23:29:30.280Z,11.40
2019-05-10T23:33:41.956Z,11.40
2019-05-10T23:37:53.864Z,11.30
2019-05-10T23:42:05.717Z,11.20
2019-05-10T23:46:18.372Z,11.20
2019-05-10T23:50:30.282Z,11.10
2019-05-10T23:54:42.092Z,11.10
2019-05-10T23:58:53.962Z,11.10
